sensor_id;sensor_type;location;lat;lon;timestamp;pressure;altitude;pressure_sealevel;temperature;humidity
72587;BME280;60621;49.576;11.024;2022-07-23T00:00:57;98253.53;;;22.94;53.48
72587;BME280;60621;49.576;11.024;2022-07-23T00:01:59;98249.75;;;22.91;53.39
72587;BME280;60621;49.576;11.024;2022-07-23T00:03:01;98256.34;;;22.90;53.55
72587;BME280;60621;49.576;11.024;2022-07-23T00:04:02;98252.00;;;22.93;53.46
72587;BME280;60621;49.576;11.024;2022-07-23T00:05:04;98249.66;;;22.95;53.60
72587;BME280;60621;49.576;11.024;2022-07-23T00:06:06;98247.41;;;22.93;53.45
72587;BME280;60621;49.576;11.024;2022-07-23T00:07:10;98250.84;;;22.94;53.43
72587;BME280;60621;49.576;11.024;2022-07-23T00:08:12;98245.88;;;22.92;53.53
72587;BME280;60621;49.576;11.024;2022-07-23T00:09:14;98249.66;;;22.95;53.49
72587;BME280;60621;49.576;11.024;2022-07-23T00:10:16;98255.31;;;22.97;53.69
72587;BME280;60621;49.576;11.024;2022-07-23T00:11:18;98254.16;;;22.98;53.65
72587;BME280;60621;49.576;11.024;2022-07-23T00:12:20;98261.78;;;22.99;53.77
72587;BME280;60621;49.576;11.024;2022-07-23T00:13:22;98262.97;;;22.98;54.02
72587;BME280;60621;49.576;11.024;2022-07-23T00:14:24;98266.72;;;23.01;53.71
72587;BME280;60621;49.576;11.024;2022-07-23T00:15:25;98275.84;;;23.04;53.94
72587;BME280;60621;49.576;11.024;2022-07-23T00:16:27;98276.28;;;23.02;53.74
72587;BME280;60621;49.576;11.024;2022-07-23T00:17:29;98275.13;;;23.03;53.80
72587;BME280;60621;49.576;11.024;2022-07-23T00:18:30;98279.28;;;23.04;53.87
72587;BME280;60621;49.576;11.024;2022-07-23T00:19:32;98277.06;;;23.03;54.46
72587;BME280;60621;49.576;11.024;2022-07-23T00:20:33;98282.97;;;22.97;54.55
72587;BME280;60621;49.576;11.024;2022-07-23T00:21:35;98273.00;;;22.98;54.63
72587;BME280;60621;49.576;11.024;2022-07-23T00:22:52;98275.69;;;22.98;54.43
72587;BME280;60621;49.576;11.024;2022-07-23T00:23:54;98270.28;;;22.98;54.44
72587;BME280;60621;49.576;11.024;2022-07-23T00:24:56;98272.53;;;22.99;54.82
72587;BME280;60621;49.576;11.024;2022-07-23T00:26:18;98269.97;;;22.96;55.01
72587;BME280;60621;49.576;11.024;2022-07-23T00:27:19;98273.00;;;22.98;54.92
72587;BME280;60621;49.576;11.024;2022-07-23T00:28:21;98268.03;;;22.96;54.66
72587;BME280;60621;49.576;11.024;2022-07-23T00:29:22;98271.16;;;22.95;55.00
72587;BME280;60621;49.576;11.024;2022-07-23T00:30:24;98269.97;;;22.96;55.21
72587;BME280;60621;49.576;11.024;2022-07-23T00:31:26;98272.78;;;22.92;55.12
72587;BME280;60621;49.576;11.024;2022-07-23T00:32:29;98266.44;;;22.86;55.08
72587;BME280;60621;49.576;11.024;2022-07-23T00:33:50;98262.69;;;22.84;55.05
72587;BME280;60621;49.576;11.024;2022-07-23T00:34:52;98251.94;;;22.84;55.34
72587;BME280;60621;49.576;11.024;2022-07-23T00:35:53;98253.25;;;22.79;55.42
72587;BME280;60621;49.576;11.024;2022-07-23T00:36:55;98247.44;;;22.81;55.30
72587;BME280;60621;49.576;11.024;2022-07-23T00:37:58;98244.41;;;22.79;55.73
72587;BME280;60621;49.576;11.024;2022-07-23T00:39:00;98243.66;;;22.78;55.73
72587;BME280;60621;49.576;11.024;2022-07-23T00:40:02;98243.34;;;22.76;55.91
72587;BME280;60621;49.576;11.024;2022-07-23T00:41:04;98241.13;;;22.74;55.75
72587;BME280;60621;49.576;11.024;2022-07-23T00:42:06;98247.09;;;22.79;55.80
72587;BME280;60621;49.576;11.024;2022-07-23T00:43:07;98251.72;;;22.78;55.44
72587;BME280;60621;49.576;11.024;2022-07-23T00:44:22;98251.72;;;22.78;55.72
72587;BME280;60621;49.576;11.024;2022-07-23T00:45:24;98238.28;;;22.78;55.50
72587;BME280;60621;49.576;11.024;2022-07-23T00:46:26;98238.28;;;22.78;55.36
72587;BME280;60621;49.576;11.024;2022-07-23T00:47:28;98233.66;;;22.79;55.73
72587;BME280;60621;49.576;11.024;2022-07-23T00:48:30;98237.13;;;22.79;55.72
72587;BME280;60621;49.576;11.024;2022-07-23T00:49:32;98226.38;;;22.79;55.38
72587;BME280;60621;49.576;11.024;2022-07-23T00:50:33;98231.28;;;22.81;55.18
72587;BME280;60621;49.576;11.024;2022-07-23T00:51:35;98228.59;;;22.81;55.23
72587;BME280;60621;49.576;11.024;2022-07-23T00:52:38;98220.34;;;22.75;55.10
72587;BME280;60621;49.576;11.024;2022-07-23T00:53:39;98224.34;;;22.70;55.28
72587;BME280;60621;49.576;11.024;2022-07-23T00:54:41;98217.91;;;22.68;55.65
72587;BME280;60621;49.576;11.024;2022-07-23T00:55:43;98225.09;;;22.71;55.25
72587;BME280;60621;49.576;11.024;2022-07-23T00:56:46;98217.16;;;22.67;55.38
72587;BME280;60621;49.576;11.024;2022-07-23T00:57:47;98219.09;;;22.67;55.76
72587;BME280;60621;49.576;11.024;2022-07-23T00:58:49;98221.16;;;22.63;55.88
72587;BME280;60621;49.576;11.024;2022-07-23T00:59:51;98214.28;;;22.62;55.69
72587;BME280;60621;49.576;11.024;2022-07-23T01:00:52;98214.28;;;22.62;55.83
72587;BME280;60621;49.576;11.024;2022-07-23T01:01:54;98216.22;;;22.61;55.93
72587;BME280;60621;49.576;11.024;2022-07-23T01:02:56;98210.66;;;22.56;56.16
72587;BME280;60621;49.576;11.024;2022-07-23T01:03:57;98215.41;;;22.52;55.98
72587;BME280;60621;49.576;11.024;2022-07-23T01:04:59;98213.13;;;22.50;56.03
72587;BME280;60621;49.576;11.024;2022-07-23T01:06:01;98216.16;;;22.52;56.31
72587;BME280;60621;49.576;11.024;2022-07-23T01:07:03;98202.72;;;22.52;56.49
72587;BME280;60621;49.576;11.024;2022-07-23T01:08:05;98213.13;;;22.50;56.09
72587;BME280;60621;49.576;11.024;2022-07-23T01:09:07;98214.75;;;22.47;56.31
72587;BME280;60621;49.576;11.024;2022-07-23T01:10:09;98211.75;;;22.45;56.70
72587;BME280;60621;49.576;11.024;2022-07-23T01:11:33;98216.81;;;22.43;56.76
72587;BME280;60621;49.576;11.024;2022-07-23T01:12:35;98213.81;;;22.41;56.69
72587;BME280;60621;49.576;11.024;2022-07-23T01:13:41;98220.38;;;22.40;56.62
72587;BME280;60621;49.576;11.024;2022-07-23T01:14:42;98211.25;;;22.38;56.68
72587;BME280;60621;49.576;11.024;2022-07-23T01:15:44;98214.69;;;22.38;56.53
72587;BME280;60621;49.576;11.024;2022-07-23T01:16:47;98210.19;;;22.35;56.51
72587;BME280;60621;49.576;11.024;2022-07-23T01:17:50;98214.38;;;22.36;56.91
72587;BME280;60621;49.576;11.024;2022-07-23T01:18:51;98212.84;;;22.35;57.01
72587;BME280;60621;49.576;11.024;2022-07-23T01:19:54;98218.38;;;22.32;56.75
72587;BME280;60621;49.576;11.024;2022-07-23T01:20:55;98211.06;;;22.32;57.08
72587;BME280;60621;49.576;11.024;2022-07-23T01:21:57;98211.06;;;22.32;56.95
72587;BME280;60621;49.576;11.024;2022-07-23T01:22:59;98207.63;;;22.32;56.93
72587;BME280;60621;49.576;11.024;2022-07-23T01:24:01;98214.50;;;22.33;57.08
72587;BME280;60621;49.576;11.024;2022-07-23T01:25:03;98211.47;;;22.31;56.98
72587;BME280;60621;49.576;11.024;2022-07-23T01:26:04;98220.28;;;22.31;57.16
72587;BME280;60621;49.576;11.024;2022-07-23T01:27:06;98224.72;;;22.25;57.39
72587;BME280;60621;49.576;11.024;2022-07-23T01:28:08;98227.66;;;22.18;57.85
72587;BME280;60621;49.576;11.024;2022-07-23T01:29:10;98230.09;;;22.12;57.85
72587;BME280;60621;49.576;11.024;2022-07-23T01:30:12;98222.47;;;21.98;58.09
72587;BME280;60621;49.576;11.024;2022-07-23T01:31:14;98218.19;;;22.01;58.24
72587;BME280;60621;49.576;11.024;2022-07-23T01:32:15;98214.97;;;22.06;58.00
72587;BME280;60621;49.576;11.024;2022-07-23T01:33:17;98220.22;;;22.09;57.69
72587;BME280;60621;49.576;11.024;2022-07-23T01:34:18;98218.38;;;22.06;57.95
72587;BME280;60621;49.576;11.024;2022-07-23T01:35:20;98218.09;;;22.04;57.98
72587;BME280;60621;49.576;11.024;2022-07-23T01:36:22;98219.59;;;22.05;58.17
72587;BME280;60621;49.576;11.024;2022-07-23T01:37:23;98217.97;;;22.08;57.88
72587;BME280;60621;49.576;11.024;2022-07-23T01:38:25;98218.63;;;22.12;57.87
72587;BME280;60621;49.576;11.024;2022-07-23T01:39:26;98212.91;;;22.10;58.25
72587;BME280;60621;49.576;11.024;2022-07-23T01:40:28;98216.34;;;22.10;57.88
72587;BME280;60621;49.576;11.024;2022-07-23T01:41:30;98219.03;;;22.10;58.33
72587;BME280;60621;49.576;11.024;2022-07-23T01:42:31;98215.19;;;22.11;58.49
72587;BME280;60621;49.576;11.024;2022-07-23T01:43:35;98218.50;;;22.15;58.10
72587;BME280;60621;49.576;11.024;2022-07-23T01:44:37;98217.66;;;22.18;57.99
72587;BME280;60621;49.576;11.024;2022-07-23T01:45:38;98227.75;;;22.14;58.13
72587;BME280;60621;49.576;11.024;2022-07-23T01:46:40;98222.16;;;22.09;58.74
72587;BME280;60621;49.576;11.024;2022-07-23T01:47:41;98225.16;;;22.11;58.68
72587;BME280;60621;49.576;11.024;2022-07-23T01:48:43;98226.25;;;22.13;58.56
72587;BME280;60621;49.576;11.024;2022-07-23T01:49:44;98228.06;;;22.16;58.32
72587;BME280;60621;49.576;11.024;2022-07-23T01:50:47;98233.88;;;22.15;58.34
72587;BME280;60621;49.576;11.024;2022-07-23T01:51:49;98231.63;;;22.13;58.55
72587;BME280;60621;49.576;11.024;2022-07-23T01:53:02;98236.13;;;22.16;58.27
72587;BME280;60621;49.576;11.024;2022-07-23T01:54:04;98245.25;;;22.19;58.46
72587;BME280;60621;49.576;11.024;2022-07-23T01:55:06;98238.69;;;22.20;58.29
72587;BME280;60621;49.576;11.024;2022-07-23T01:56:08;98240.97;;;22.09;58.79
72587;BME280;60621;49.576;11.024;2022-07-23T01:57:09;98239.69;;;22.01;59.02
72587;BME280;60621;49.576;11.024;2022-07-23T01:58:11;98252.03;;;21.98;59.12
72587;BME280;60621;49.576;11.024;2022-07-23T01:59:13;98250.53;;;21.97;59.23
72587;BME280;60621;49.576;11.024;2022-07-23T02:00:15;98256.22;;;21.86;59.18
72587;BME280;60621;49.576;11.024;2022-07-23T02:01:16;98254.72;;;21.72;59.88
72587;BME280;60621;49.576;11.024;2022-07-23T02:02:18;98256.22;;;21.73;59.76
72587;BME280;60621;49.576;11.024;2022-07-23T02:03:20;98260.00;;;21.76;59.76
72587;BME280;60621;49.576;11.024;2022-07-23T02:04:24;98263.00;;;21.78;59.37
72587;BME280;60621;49.576;11.024;2022-07-23T02:05:26;98273.22;;;21.70;59.71
72587;BME280;60621;49.576;11.024;2022-07-23T02:06:29;98274.38;;;21.57;60.21
72587;BME280;60621;49.576;11.024;2022-07-23T02:07:31;98280.72;;;21.63;60.11
72587;BME280;60621;49.576;11.024;2022-07-23T02:08:35;98271.28;;;21.71;59.54
72587;BME280;60621;49.576;11.024;2022-07-23T02:09:37;98272.25;;;21.77;59.46
72587;BME280;60621;49.576;11.024;2022-07-23T02:10:38;98282.44;;;21.82;59.26
72587;BME280;60621;49.576;11.024;2022-07-23T02:11:40;98272.78;;;21.85;59.21
72587;BME280;60621;49.576;11.024;2022-07-23T02:12:42;98275.03;;;21.86;59.23
72587;BME280;60621;49.576;11.024;2022-07-23T02:13:44;98277.06;;;21.82;59.34
72587;BME280;60621;49.576;11.024;2022-07-23T02:14:45;98266.00;;;21.80;59.45
72587;BME280;60621;49.576;11.024;2022-07-23T02:15:47;98264.81;;;21.81;59.35
72587;BME280;60621;49.576;11.024;2022-07-23T02:16:48;98261.72;;;21.83;59.57
72587;BME280;60621;49.576;11.024;2022-07-23T02:17:50;98258.16;;;21.86;59.28
72587;BME280;60621;49.576;11.024;2022-07-23T02:18:52;98252.81;;;21.86;59.30
72587;BME280;60621;49.576;11.024;2022-07-23T02:19:53;98265.03;;;21.87;59.23
72587;BME280;60621;49.576;11.024;2022-07-23T02:20:55;98256.66;;;21.85;59.36
72587;BME280;60621;49.576;11.024;2022-07-23T02:21:56;98251.31;;;21.85;59.48
72587;BME280;60621;49.576;11.024;2022-07-23T02:22:58;98260.09;;;21.85;59.41
72587;BME280;60621;49.576;11.024;2022-07-23T02:24:00;98244.00;;;21.85;59.48
72587;BME280;60621;49.576;11.024;2022-07-23T02:25:02;98253.44;;;21.90;59.28
72587;BME280;60621;49.576;11.024;2022-07-23T02:26:04;98251.16;;;21.88;59.40
72587;BME280;60621;49.576;11.024;2022-07-23T02:27:05;98246.13;;;21.90;59.59
72587;BME280;60621;49.576;11.024;2022-07-23T02:28:07;98249.56;;;21.91;59.40
72587;BME280;60621;49.576;11.024;2022-07-23T02:29:09;98237.34;;;21.90;59.46
72587;BME280;60621;49.576;11.024;2022-07-23T02:30:11;98226.25;;;21.88;59.56
72587;BME280;60621;49.576;11.024;2022-07-23T02:31:12;98230.56;;;21.85;59.59
72587;BME280;60621;49.576;11.024;2022-07-23T02:32:14;98231.41;;;21.82;59.55
72587;BME280;60621;49.576;11.024;2022-07-23T02:33:15;98227.56;;;21.83;59.55
72587;BME280;60621;49.576;11.024;2022-07-23T02:34:18;98232.16;;;21.83;59.78
72587;BME280;60621;49.576;11.024;2022-07-23T02:35:19;98230.56;;;21.85;59.51
72587;BME280;60621;49.576;11.024;2022-07-23T02:36:21;98225.50;;;21.87;59.65
72587;BME280;60621;49.576;11.024;2022-07-23T02:37:22;98218.00;;;21.82;59.63
72587;BME280;60621;49.576;11.024;2022-07-23T02:38:24;98211.22;;;21.78;59.93
72587;BME280;60621;49.576;11.024;2022-07-23T02:39:26;98217.03;;;21.76;60.05
72587;BME280;60621;49.576;11.024;2022-07-23T02:40:28;98218.66;;;21.73;60.11
72587;BME280;60621;49.576;11.024;2022-07-23T02:41:30;98216.72;;;21.74;59.85
72587;BME280;60621;49.576;11.024;2022-07-23T02:42:31;98210.28;;;21.71;59.99
72587;BME280;60621;49.576;11.024;2022-07-23T02:43:32;98219.41;;;21.74;60.37
72587;BME280;60621;49.576;11.024;2022-07-23T02:44:34;98219.72;;;21.76;60.32
72587;BME280;60621;49.576;11.024;2022-07-23T02:45:36;98218.53;;;21.77;60.00
72587;BME280;60621;49.576;11.024;2022-07-23T02:46:37;98220.16;;;21.75;60.15
72587;BME280;60621;49.576;11.024;2022-07-23T02:47:39;98220.91;;;21.75;60.17
72587;BME280;60621;49.576;11.024;2022-07-23T02:48:41;98226.06;;;21.69;60.31
72587;BME280;60621;49.576;11.024;2022-07-23T02:49:43;98220.38;;;21.67;60.80
72587;BME280;60621;49.576;11.024;2022-07-23T02:50:45;98230.47;;;21.63;60.82
72587;BME280;60621;49.576;11.024;2022-07-23T02:51:46;98222.41;;;21.63;61.28
72587;BME280;60621;49.576;11.024;2022-07-23T02:52:48;98216.41;;;21.59;61.10
72587;BME280;60621;49.576;11.024;2022-07-23T02:53:49;98218.78;;;21.57;61.38
72587;BME280;60621;49.576;11.024;2022-07-23T02:54:51;98221.13;;;21.55;61.51
72587;BME280;60621;49.576;11.024;2022-07-23T02:55:52;98208.13;;;21.54;61.50
72587;BME280;60621;49.576;11.024;2022-07-23T02:56:54;98215.13;;;21.51;61.71
72587;BME280;60621;49.576;11.024;2022-07-23T02:57:55;98212.09;;;21.49;61.93
72587;BME280;60621;49.576;11.024;2022-07-23T02:58:57;98207.06;;;21.51;61.88
72587;BME280;60621;49.576;11.024;2022-07-23T02:59:59;98204.06;;;21.49;61.66
72587;BME280;60621;49.576;11.024;2022-07-23T03:01:01;98206.75;;;21.49;61.79
72587;BME280;60621;49.576;11.024;2022-07-23T03:02:03;98205.69;;;21.46;62.15
72587;BME280;60621;49.576;11.024;2022-07-23T03:03:04;98206.53;;;21.43;62.04
72587;BME280;60621;49.576;11.024;2022-07-23T03:04:06;98212.22;;;21.45;62.17
72587;BME280;60621;49.576;11.024;2022-07-23T03:05:08;98209.22;;;21.43;62.42
72587;BME280;60621;49.576;11.024;2022-07-23T03:06:09;98216.50;;;21.43;62.21
72587;BME280;60621;49.576;11.024;2022-07-23T03:07:11;98208.03;;;21.44;62.55
72587;BME280;60621;49.576;11.024;2022-07-23T03:08:12;98211.59;;;21.41;62.41
72587;BME280;60621;49.576;11.024;2022-07-23T03:09:14;98210.06;;;21.40;62.53
72587;BME280;60621;49.576;11.024;2022-07-23T03:10:16;98207.06;;;21.38;62.72
72587;BME280;60621;49.576;11.024;2022-07-23T03:11:17;98208.34;;;21.34;62.77
72587;BME280;60621;49.576;11.024;2022-07-23T03:12:19;98206.41;;;21.34;62.77
72587;BME280;60621;49.576;11.024;2022-07-23T03:13:20;98209.19;;;21.31;62.90
72587;BME280;60621;49.576;11.024;2022-07-23T03:14:22;98199.31;;;21.28;63.06
72587;BME280;60621;49.576;11.024;2022-07-23T03:15:24;98203.16;;;21.27;62.94
72587;BME280;60621;49.576;11.024;2022-07-23T03:16:25;98203.59;;;21.25;63.05
72587;BME280;60621;49.576;11.024;2022-07-23T03:17:27;98209.03;;;21.21;63.28
72587;BME280;60621;49.576;11.024;2022-07-23T03:18:28;98205.22;;;21.22;63.21
72587;BME280;60621;49.576;11.024;2022-07-23T03:19:30;98213.25;;;21.22;63.20
72587;BME280;60621;49.576;11.024;2022-07-23T03:20:32;98207.09;;;21.22;63.25
72587;BME280;60621;49.576;11.024;2022-07-23T03:21:33;98217.84;;;21.22;63.27
72587;BME280;60621;49.576;11.024;2022-07-23T03:22:35;98214.09;;;21.19;63.41
72587;BME280;60621;49.576;11.024;2022-07-23T03:23:37;98219.16;;;21.17;63.30
72587;BME280;60621;49.576;11.024;2022-07-23T03:24:38;98217.97;;;21.18;63.46
72587;BME280;60621;49.576;11.024;2022-07-23T03:25:55;98214.19;;;21.16;63.45
72587;BME280;60621;49.576;11.024;2022-07-23T03:26:57;98224.16;;;21.15;63.53
72587;BME280;60621;49.576;11.024;2022-07-23T03:27:58;98215.16;;;21.09;63.81
72587;BME280;60621;49.576;11.024;2022-07-23T03:29:00;98225.44;;;21.11;63.74
72587;BME280;60621;49.576;11.024;2022-07-23T03:30:03;98227.38;;;21.10;63.82
72587;BME280;60621;49.576;11.024;2022-07-23T03:31:05;98223.94;;;21.10;63.62
72587;BME280;60621;49.576;11.024;2022-07-23T03:32:06;98221.28;;;21.10;63.98
72587;BME280;60621;49.576;11.024;2022-07-23T03:33:08;98222.88;;;21.07;63.94
72587;BME280;60621;49.576;11.024;2022-07-23T03:34:10;98224.13;;;21.03;63.98
72587;BME280;60621;49.576;11.024;2022-07-23T03:35:11;98229.09;;;21.04;64.40
72587;BME280;60621;49.576;11.024;2022-07-23T03:36:13;98225.31;;;21.02;64.25
72587;BME280;60621;49.576;11.024;2022-07-23T03:37:16;98221.97;;;20.97;64.46
72587;BME280;60621;49.576;11.024;2022-07-23T03:38:18;98227.69;;;21.00;64.46
72587;BME280;60621;49.576;11.024;2022-07-23T03:39:20;98223.81;;;21.01;64.24
72587;BME280;60621;49.576;11.024;2022-07-23T03:40:21;98223.38;;;21.02;64.33
72587;BME280;60621;49.576;11.024;2022-07-23T03:41:23;98225.31;;;21.02;64.22
72587;BME280;60621;49.576;11.024;2022-07-23T03:42:24;98223.06;;;21.00;64.46
72587;BME280;60621;49.576;11.024;2022-07-23T03:43:26;98221.47;;;21.03;64.35
72587;BME280;60621;49.576;11.024;2022-07-23T03:44:27;98228.75;;;21.02;64.34
72587;BME280;60621;49.576;11.024;2022-07-23T03:45:29;98223.16;;;20.96;64.46
72587;BME280;60621;49.576;11.024;2022-07-23T03:46:31;98225.31;;;20.89;64.98
72587;BME280;60621;49.576;11.024;2022-07-23T03:47:32;98223.47;;;20.86;65.03
72587;BME280;60621;49.576;11.024;2022-07-23T03:48:34;98228.06;;;20.85;65.23
72587;BME280;60621;49.576;11.024;2022-07-23T03:49:36;98227.66;;;20.87;65.22
72587;BME280;60621;49.576;11.024;2022-07-23T03:50:37;98228.00;;;20.89;65.20
72587;BME280;60621;49.576;11.024;2022-07-23T03:51:39;98226.97;;;20.83;65.17
72587;BME280;60621;49.576;11.024;2022-07-23T03:52:40;98232.03;;;20.81;65.17
72587;BME280;60621;49.576;11.024;2022-07-23T03:53:41;98223.25;;;20.80;65.38
72587;BME280;60621;49.576;11.024;2022-07-23T03:54:43;98227.84;;;20.80;65.45
72587;BME280;60621;49.576;11.024;2022-07-23T03:55:45;98221.31;;;20.81;65.53
72587;BME280;60621;49.576;11.024;2022-07-23T03:56:46;98227.31;;;20.85;65.24
72587;BME280;60621;49.576;11.024;2022-07-23T03:57:48;98231.06;;;20.87;65.54
72587;BME280;60621;49.576;11.024;2022-07-23T03:58:50;98232.16;;;20.90;65.19
72587;BME280;60621;49.576;11.024;2022-07-23T03:59:51;98237.53;;;20.90;65.05
72587;BME280;60621;49.576;11.024;2022-07-23T04:00:53;98231.41;;;20.89;65.08
72587;BME280;60621;49.576;11.024;2022-07-23T04:01:54;98237.84;;;20.92;64.90
72587;BME280;60621;49.576;11.024;2022-07-23T04:02:56;98235.06;;;20.95;64.83
72587;BME280;60621;49.576;11.024;2022-07-23T04:03:58;98242.38;;;20.95;64.58
72587;BME280;60621;49.576;11.024;2022-07-23T04:04:59;98232.47;;;20.92;64.75
72587;BME280;60621;49.576;11.024;2022-07-23T04:06:02;98238.50;;;20.96;64.65
72587;BME280;60621;49.576;11.024;2022-07-23T04:07:03;98252.22;;;20.98;64.64
72587;BME280;60621;49.576;11.024;2022-07-23T04:08:06;98248.69;;;21.01;64.34
72587;BME280;60621;49.576;11.024;2022-07-23T04:09:07;98245.94;;;21.05;64.29
72587;BME280;60621;49.576;11.024;2022-07-23T04:10:09;98246.25;;;21.07;64.21
72587;BME280;60621;49.576;11.024;2022-07-23T04:11:10;98248.94;;;21.07;64.24
72587;BME280;60621;49.576;11.024;2022-07-23T04:12:12;98248.63;;;21.05;64.36
72587;BME280;60621;49.576;11.024;2022-07-23T04:13:14;98245.59;;;21.03;64.37
72587;BME280;60621;49.576;11.024;2022-07-23T04:14:15;98240.22;;;21.03;64.38
72587;BME280;60621;49.576;11.024;2022-07-23T04:15:17;98241.00;;;21.03;64.38
72587;BME280;60621;49.576;11.024;2022-07-23T04:16:18;98254.06;;;21.01;64.27
72587;BME280;60621;49.576;11.024;2022-07-23T04:17:20;98248.38;;;20.99;64.36
72587;BME280;60621;49.576;11.024;2022-07-23T04:18:21;98251.16;;;20.95;64.51
72587;BME280;60621;49.576;11.024;2022-07-23T04:19:26;98248.91;;;20.94;64.58
72587;BME280;60621;49.576;11.024;2022-07-23T04:20:27;98249.44;;;20.89;64.73
72587;BME280;60621;49.576;11.024;2022-07-23T04:21:29;98244.16;;;20.85;64.69
72587;BME280;60621;49.576;11.024;2022-07-23T04:22:30;98245.00;;;20.82;64.78
72587;BME280;60621;49.576;11.024;2022-07-23T04:23:32;98247.69;;;20.82;64.82
72587;BME280;60621;49.576;11.024;2022-07-23T04:24:33;98255.72;;;20.82;64.96
72587;BME280;60621;49.576;11.024;2022-07-23T04:25:35;98255.41;;;20.80;64.93
72587;BME280;60621;49.576;11.024;2022-07-23T04:26:37;98254.31;;;20.78;64.92
72587;BME280;60621;49.576;11.024;2022-07-23T04:27:38;98253.25;;;20.75;65.20
72587;BME280;60621;49.576;11.024;2022-07-23T04:28:40;98252.06;;;20.76;65.02
72587;BME280;60621;49.576;11.024;2022-07-23T04:29:41;98255.41;;;20.80;64.79
72587;BME280;60621;49.576;11.024;2022-07-23T04:30:43;98254.97;;;20.82;64.86
72587;BME280;60621;49.576;11.024;2022-07-23T04:31:44;98259.16;;;20.83;64.93
72587;BME280;60621;49.576;11.024;2022-07-23T04:32:46;98268.28;;;20.85;64.88
72587;BME280;60621;49.576;11.024;2022-07-23T04:33:47;98271.28;;;20.87;64.72
72587;BME280;60621;49.576;11.024;2022-07-23T04:34:49;98263.59;;;20.89;64.59
72587;BME280;60621;49.576;11.024;2022-07-23T04:35:51;98264.66;;;20.92;64.60
72587;BME280;60621;49.576;11.024;2022-07-23T04:36:53;98262.63;;;20.96;64.69
72587;BME280;60621;49.576;11.024;2022-07-23T04:37:55;98272.19;;;20.97;64.45
72587;BME280;60621;49.576;11.024;2022-07-23T04:38:57;98262.53;;;21.00;64.22
72587;BME280;60621;49.576;11.024;2022-07-23T04:39:58;98265.97;;;21.00;64.32
72587;BME280;60621;49.576;11.024;2022-07-23T04:41:00;98267.03;;;21.03;64.54
72587;BME280;60621;49.576;11.024;2022-07-23T04:42:02;98268.88;;;21.06;64.32
72587;BME280;60621;49.576;11.024;2022-07-23T04:43:03;98269.53;;;21.10;64.10
72587;BME280;60621;49.576;11.024;2022-07-23T04:44:06;98267.59;;;21.10;63.98
72587;BME280;60621;49.576;11.024;2022-07-23T04:45:08;98271.38;;;21.13;64.13
72587;BME280;60621;49.576;11.024;2022-07-23T04:46:14;98271.25;;;21.16;63.85
72587;BME280;60621;49.576;11.024;2022-07-23T04:47:17;98274.28;;;21.18;63.58
72587;BME280;60621;49.576;11.024;2022-07-23T04:48:19;98268.06;;;21.21;63.86
72587;BME280;60621;49.576;11.024;2022-07-23T04:49:21;98265.38;;;21.21;63.70
72587;BME280;60621;49.576;11.024;2022-07-23T04:50:22;98265.38;;;21.21;63.70
72587;BME280;60621;49.576;11.024;2022-07-23T04:51:27;98266.47;;;21.24;63.40
72587;BME280;60621;49.576;11.024;2022-07-23T04:52:30;98268.31;;;21.27;63.46
72587;BME280;60621;49.576;11.024;2022-07-23T04:53:31;98262.50;;;21.29;63.48
72587;BME280;60621;49.576;11.024;2022-07-23T04:54:33;98262.50;;;21.29;63.41
72587;BME280;60621;49.576;11.024;2022-07-23T04:55:35;98262.06;;;21.30;63.30
72587;BME280;60621;49.576;11.024;2022-07-23T04:56:36;98259.31;;;21.34;62.95
72587;BME280;60621;49.576;11.024;2022-07-23T04:57:38;98267.69;;;21.36;63.12
72587;BME280;60621;49.576;11.024;2022-07-23T04:58:39;98266.94;;;21.35;63.05
72587;BME280;60621;49.576;11.024;2022-07-23T04:59:41;98261.91;;;21.37;62.99
72587;BME280;60621;49.576;11.024;2022-07-23T05:00:43;98263.41;;;21.38;62.89
72587;BME280;60621;49.576;11.024;2022-07-23T05:01:44;98259.53;;;21.39;62.58
72587;BME280;60621;49.576;11.024;2022-07-23T05:02:46;98261.03;;;21.40;62.92
72587;BME280;60621;49.576;11.024;2022-07-23T05:03:47;98265.66;;;21.40;62.85
72587;BME280;60621;49.576;11.024;2022-07-23T05:04:50;98262.88;;;21.43;62.97
72587;BME280;60621;49.576;11.024;2022-07-23T05:05:51;98255.91;;;21.46;62.93
72587;BME280;60621;49.576;11.024;2022-07-23T05:06:53;98256.97;;;21.48;62.64
72587;BME280;60621;49.576;11.024;2022-07-23T05:07:54;98252.69;;;21.51;62.54
72587;BME280;60621;49.576;11.024;2022-07-23T05:08:56;98250.31;;;21.53;62.49
72587;BME280;60621;49.576;11.024;2022-07-23T05:09:58;98256.00;;;21.55;62.24
72587;BME280;60621;49.576;11.024;2022-07-23T05:11:00;98259.34;;;21.59;62.02
72587;BME280;60621;49.576;11.024;2022-07-23T05:12:01;98256.66;;;21.59;62.20
72587;BME280;60621;49.576;11.024;2022-07-23T05:13:03;98265.78;;;21.62;61.87
72587;BME280;60621;49.576;11.024;2022-07-23T05:14:04;98271.06;;;21.65;61.75
72587;BME280;60621;49.576;11.024;2022-07-23T05:15:06;98274.72;;;21.71;61.59
72587;BME280;60621;49.576;11.024;2022-07-23T05:16:08;98276.75;;;21.67;61.54
72587;BME280;60621;49.576;11.024;2022-07-23T05:17:09;98275.34;;;21.63;61.70
72587;BME280;60621;49.576;11.024;2022-07-23T05:18:11;98279.22;;;21.62;62.08
72587;BME280;60621;49.576;11.024;2022-07-23T05:19:12;98277.72;;;21.61;62.04
72587;BME280;60621;49.576;11.024;2022-07-23T05:20:15;98274.91;;;21.64;62.16
72587;BME280;60621;49.576;11.024;2022-07-23T05:21:16;98274.06;;;21.67;61.89
72587;BME280;60621;49.576;11.024;2022-07-23T05:22:18;98273.53;;;21.72;61.87
72587;BME280;60621;49.576;11.024;2022-07-23T05:23:19;98276.31;;;21.69;61.54
72587;BME280;60621;49.576;11.024;2022-07-23T05:24:21;98272.47;;;21.70;61.68
72587;BME280;60621;49.576;11.024;2022-07-23T05:25:23;98275.34;;;21.76;61.46